createdAt,value
2018-06-03T00:00:53.955Z,21.62
2018-06-03T00:03:20.229Z,21.68
2018-06-03T00:05:46.471Z,21.69
2018-06-03T00:08:12.730Z,21.65
2018-06-03T00:10:39.003Z,21.57
2018-06-03T00:13:05.236Z,21.56
2018-06-03T00:15:31.487Z,21.50
2018-06-03T00:17:57.714Z,21.49
2018-06-03T00:20:29.878Z,21.57
2018-06-03T00:22:56.146Z,21.60
2018-06-03T00:25:22.405Z,21.51
2018-06-03T00:27:48.670Z,21.46
2018-06-03T00:30:14.906Z,21.30
2018-06-03T00:32:41.143Z,21.29
2018-06-03T00:35:07.412Z,21.30
2018-06-03T00:37:33.643Z,21.30
2018-06-03T00:39:59.911Z,21.37
2018-06-03T00:42:26.151Z,21.39
2018-06-03T00:44:52.410Z,21.42
2018-06-03T00:47:18.647Z,21.32
2018-06-03T00:49:44.907Z,21.39
2018-06-03T00:52:11.163Z,21.43
2018-06-03T00:54:37.404Z,21.34
2018-06-03T00:57:08.554Z,21.11
2018-06-03T00:59:34.782Z,21.09
2018-06-03T01:02:01.067Z,21.10
2018-06-03T01:04:27.329Z,21.07
2018-06-03T01:06:53.581Z,21.05
2018-06-03T01:09:19.846Z,21.07
2018-06-03T01:11:46.066Z,20.96
2018-06-03T01:14:12.324Z,20.93
2018-06-03T01:16:38.562Z,20.90
2018-06-03T01:19:04.807Z,20.92
2018-06-03T01:21:31.080Z,20.94
2018-06-03T01:23:57.347Z,20.91
2018-06-03T01:26:23.594Z,20.98
2018-06-03T01:28:49.847Z,21.02
2018-06-03T01:31:16.076Z,21.06
2018-06-03T01:33:42.378Z,20.99
2018-06-03T01:36:08.626Z,21.01
2018-06-03T01:38:34.863Z,20.94
2018-06-03T01:41:01.116Z,20.98
2018-06-03T01:43:27.362Z,20.94
2018-06-03T01:45:53.679Z,20.97
2018-06-03T01:48:19.934Z,20.91
2018-06-03T01:50:46.175Z,20.94
2018-06-03T01:53:12.442Z,20.87
2018-06-03T01:55:38.710Z,20.88
2018-06-03T01:58:04.987Z,20.93
2018-06-03T02:00:31.270Z,20.96
2018-06-03T02:02:57.527Z,20.99
2018-06-03T02:05:23.755Z,21.04
2018-06-03T02:07:50.052Z,20.96
2018-06-03T02:10:16.279Z,20.95
2018-06-03T02:12:42.522Z,20.97
2018-06-03T02:15:08.794Z,20.98
2018-06-03T02:17:35.027Z,20.97
2018-06-03T02:20:01.290Z,20.99
2018-06-03T02:22:27.582Z,20.96
2018-06-03T02:24:53.815Z,21.02
2018-06-03T02:27:20.041Z,21.04
2018-06-03T02:29:46.311Z,21.06
2018-06-03T02:32:12.555Z,21.06
2018-06-03T02:34:38.803Z,21.05
2018-06-03T02:37:05.070Z,21.02
2018-06-03T02:39:31.289Z,20.96
2018-06-03T02:41:57.539Z,20.98
2018-06-03T02:44:23.802Z,21.00
2018-06-03T02:46:50.083Z,20.96
2018-06-03T02:49:16.335Z,20.94
2018-06-03T02:51:42.635Z,20.89
2018-06-03T02:54:08.923Z,20.83
2018-06-03T02:56:35.170Z,20.75
2018-06-03T02:59:01.453Z,20.75
2018-06-03T03:01:27.688Z,20.67
2018-06-03T03:03:53.939Z,20.69
2018-06-03T03:06:20.199Z,20.75
2018-06-03T03:08:46.445Z,20.63
2018-06-03T03:11:12.675Z,20.64
2018-06-03T03:13:38.963Z,20.69
2018-06-03T03:16:05.201Z,20.73
2018-06-03T03:18:31.436Z,20.85
2018-06-03T03:20:57.731Z,20.89
2018-06-03T03:23:23.975Z,20.77
2018-06-03T03:25:50.214Z,20.73
2018-06-03T03:28:16.502Z,20.75
2018-06-03T03:30:42.735Z,20.65
2018-06-03T03:33:08.993Z,20.56
2018-06-03T03:35:35.256Z,20.49
2018-06-03T03:38:01.496Z,20.46
2018-06-03T03:40:27.746Z,20.31
2018-06-03T03:42:54.026Z,20.31
2018-06-03T03:45:20.254Z,20.30
2018-06-03T03:47:46.480Z,20.34
2018-06-03T03:50:12.767Z,20.34
2018-06-03T03:52:39.014Z,20.38
2018-06-03T03:55:05.258Z,20.37
2018-06-03T03:57:31.524Z,20.39
2018-06-03T03:59:57.755Z,20.38
2018-06-03T04:02:23.987Z,20.33
2018-06-03T04:04:50.259Z,20.42
2018-06-03T04:07:16.511Z,20.41
2018-06-03T04:09:42.751Z,20.43
2018-06-03T04:12:09.020Z,20.51
2018-06-03T04:14:35.263Z,20.56
2018-06-03T04:17:01.499Z,20.70
2018-06-03T04:19:27.760Z,20.72
2018-06-03T04:21:53.999Z,20.76
2018-06-03T04:24:20.230Z,20.75
2018-06-03T04:26:46.495Z,20.80
2018-06-03T04:29:12.733Z,20.80
2018-06-03T04:31:38.972Z,20.78
2018-06-03T04:34:05.272Z,20.82
2018-06-03T04:36:31.486Z,20.91
2018-06-03T04:38:57.715Z,20.83
2018-06-03T04:41:24.034Z,20.98
2018-06-03T04:43:50.289Z,20.89
2018-06-03T04:46:16.549Z,20.85
2018-06-03T04:48:42.870Z,20.96
2018-06-03T04:51:09.102Z,20.96
2018-06-03T04:53:35.399Z,21.01
2018-06-03T04:56:01.719Z,21.09
2018-06-03T04:58:27.974Z,21.12
2018-06-03T05:00:54.219Z,21.18
2018-06-03T05:03:20.538Z,21.19
2018-06-03T05:05:46.853Z,21.20
2018-06-03T05:08:13.126Z,21.21
2018-06-03T05:10:39.399Z,21.23
2018-06-03T05:13:05.642Z,21.40
2018-06-03T05:15:31.869Z,21.29
2018-06-03T05:17:58.926Z,21.16
2018-06-03T05:20:25.236Z,21.16
2018-06-03T05:22:51.499Z,21.23
2018-06-03T05:25:17.881Z,21.34
2018-06-03T05:27:44.130Z,21.46
2018-06-03T05:30:10.383Z,21.52
2018-06-03T05:32:36.660Z,21.56
2018-06-03T05:35:02.944Z,21.61
2018-06-03T05:37:29.271Z,21.73
2018-06-03T05:39:55.554Z,21.72
2018-06-03T05:42:21.834Z,21.70
2018-06-03T05:44:48.080Z,21.74
2018-06-03T05:47:14.375Z,21.63
2018-06-03T05:49:40.708Z,21.68
2018-06-03T05:52:06.966Z,21.75
2018-06-03T05:54:33.302Z,21.81
2018-06-03T05:56:59.590Z,21.60
2018-06-03T05:59:25.915Z,21.69
2018-06-03T06:01:52.214Z,21.75
2018-06-03T06:04:18.534Z,21.78
2018-06-03T06:06:44.821Z,21.89
2018-06-03T06:09:11.258Z,22.07
2018-06-03T06:11:37.545Z,22.22
2018-06-03T06:14:03.834Z,22.29
2018-06-03T06:16:32.104Z,22.14
2018-06-03T06:18:58.584Z,22.23
2018-06-03T06:21:24.836Z,22.20
2018-06-03T06:23:51.216Z,22.22
2018-06-03T06:26:17.669Z,22.23
2018-06-03T06:28:43.933Z,22.40
2018-06-03T06:31:10.305Z,22.40
2018-06-03T06:33:36.608Z,22.48
2018-06-03T06:36:02.851Z,22.41
2018-06-03T06:38:29.139Z,22.14
2018-06-03T06:40:55.416Z,22.12
2018-06-03T06:43:21.703Z,22.10
2018-06-03T06:45:48.071Z,21.96
2018-06-03T06:48:14.340Z,22.09
2018-06-03T06:50:40.786Z,22.12
2018-06-03T06:53:08.026Z,22.17
2018-06-03T06:55:34.290Z,22.32
2018-06-03T06:58:00.630Z,22.56
2018-06-03T07:00:27.152Z,22.68
2018-06-03T07:02:53.410Z,22.96
2018-06-03T07:05:59.848Z,22.97
2018-06-03T07:08:27.483Z,23.39
2018-06-03T07:10:55.073Z,23.55
2018-06-03T07:13:22.626Z,23.74
2018-06-03T07:15:50.260Z,23.87
2018-06-03T07:18:17.827Z,24.18
2018-06-03T07:20:45.382Z,24.25
2018-06-03T07:23:12.933Z,24.81
2018-06-03T07:25:40.503Z,25.02
2018-06-03T07:28:08.066Z,24.67
2018-06-03T07:30:35.591Z,24.42
2018-06-03T07:33:03.132Z,24.27
2018-06-03T07:35:30.675Z,24.31
2018-06-03T07:37:58.195Z,24.19
2018-06-03T07:40:25.709Z,23.97
2018-06-03T07:42:53.331Z,23.63
2018-06-03T07:45:20.845Z,23.54
2018-06-03T07:47:48.415Z,23.46
2018-06-03T07:50:16.174Z,23.46
2018-06-03T07:52:43.959Z,23.42
2018-06-03T07:55:11.648Z,23.28
2018-06-03T07:57:39.398Z,23.20
2018-06-03T08:00:07.074Z,23.33
2018-06-03T08:02:34.650Z,23.33
2018-06-03T08:05:02.243Z,23.45
2018-06-03T08:07:29.778Z,23.46
2018-06-03T08:09:57.287Z,23.70
2018-06-03T08:12:25.493Z,24.18
2018-06-03T08:14:53.325Z,24.55
2018-06-03T08:17:21.155Z,24.99
2018-06-03T08:19:48.930Z,24.78
2018-06-03T08:22:16.685Z,24.83
2018-06-03T08:24:44.380Z,24.89
2018-06-03T08:27:12.046Z,24.40
2018-06-03T08:29:39.618Z,24.43
2018-06-03T08:32:07.202Z,24.42
2018-06-03T08:34:34.751Z,24.73
2018-06-03T08:37:03.052Z,25.12
2018-06-03T08:39:31.566Z,25.66
2018-06-03T08:41:59.239Z,25.75
2018-06-03T08:44:26.823Z,26.15
2018-06-03T08:46:54.534Z,26.89
2018-06-03T08:49:22.331Z,27.29
2018-06-03T08:51:49.907Z,27.40
2018-06-03T08:54:17.426Z,27.18
2018-06-03T08:56:46.336Z,26.79
2018-06-03T08:59:13.987Z,26.22
2018-06-03T09:01:41.671Z,25.40
2018-06-03T09:04:09.353Z,24.91
2018-06-03T09:06:37.058Z,24.92
2018-06-03T09:09:06.207Z,24.91
2018-06-03T09:11:33.863Z,24.77
2018-06-03T09:14:01.579Z,24.66
2018-06-03T09:16:29.255Z,24.64
2018-06-03T09:18:56.847Z,25.18
2018-06-03T09:21:24.407Z,25.84
2018-06-03T09:23:52.110Z,26.79
2018-06-03T09:26:19.787Z,27.83
2018-06-03T09:28:47.499Z,28.36
2018-06-03T09:31:15.257Z,27.81
2018-06-03T09:33:42.814Z,28.00
2018-06-03T09:36:10.343Z,28.49
2018-06-03T09:38:38.473Z,27.86
2018-06-03T09:41:06.339Z,27.35
2018-06-03T09:43:33.940Z,26.88
2018-06-03T09:46:01.533Z,27.19
2018-06-03T09:48:29.412Z,27.90
2018-06-03T09:50:57.136Z,28.18
2018-06-03T09:53:24.900Z,29.05
2018-06-03T09:55:52.894Z,29.76
2018-06-03T09:58:20.544Z,29.81
2018-06-03T10:00:48.537Z,29.60
2018-06-03T10:03:16.473Z,29.87
2018-06-03T10:05:44.278Z,29.99
2018-06-03T10:08:12.005Z,29.27
2018-06-03T10:10:39.714Z,29.13
2018-06-03T10:13:07.723Z,29.68
2018-06-03T10:15:35.274Z,30.50
2018-06-03T10:18:02.908Z,30.83
2018-06-03T10:20:30.499Z,30.89
2018-06-03T10:22:58.091Z,31.46
2018-06-03T10:25:25.736Z,31.22
2018-06-03T10:27:53.286Z,31.84
2018-06-03T10:30:20.959Z,31.56
2018-06-03T10:32:48.831Z,31.23
2018-06-03T10:35:16.431Z,30.93
2018-06-03T10:37:44.108Z,30.04
2018-06-03T10:40:11.829Z,29.06
2018-06-03T10:42:40.219Z,28.33
2018-06-03T10:45:07.826Z,27.73
2018-06-03T10:47:35.399Z,27.27
2018-06-03T10:50:03.049Z,27.01
2018-06-03T10:52:30.698Z,26.67
2018-06-03T10:54:58.468Z,26.57
2018-06-03T10:57:26.001Z,26.47
2018-06-03T10:59:53.608Z,26.39
2018-06-03T11:02:21.310Z,26.63
2018-06-03T11:04:49.099Z,27.78
2018-06-03T11:07:16.911Z,28.78
2018-06-03T11:09:44.594Z,29.67
2018-06-03T11:12:12.174Z,29.03
2018-06-03T11:14:39.975Z,28.88
2018-06-03T11:17:07.575Z,28.36
2018-06-03T11:19:35.115Z,27.87
2018-06-03T11:22:02.635Z,27.38
2018-06-03T11:24:30.168Z,27.02
2018-06-03T11:26:57.706Z,26.66
2018-06-03T11:29:25.280Z,26.68
2018-06-03T11:31:52.871Z,26.47
2018-06-03T11:34:20.420Z,26.47
2018-06-03T11:36:47.927Z,26.66
2018-06-03T11:39:15.483Z,26.96
2018-06-03T11:41:42.992Z,27.16
2018-06-03T11:44:10.532Z,27.89
2018-06-03T11:46:38.118Z,29.74
2018-06-03T11:49:05.651Z,31.22
2018-06-03T11:51:33.215Z,31.91
2018-06-03T11:54:00.804Z,32.97
2018-06-03T11:56:39.475Z,34.16
2018-06-03T11:59:11.239Z,34.93
2018-06-03T12:01:38.794Z,35.48
2018-06-03T12:04:06.371Z,35.36
2018-06-03T12:06:33.957Z,36.03
2018-06-03T12:09:01.482Z,34.10
2018-06-03T12:11:29.183Z,32.54
2018-06-03T12:13:56.744Z,33.29
2018-06-03T12:16:24.315Z,32.38
2018-06-03T12:18:51.897Z,31.88
2018-06-03T12:21:19.456Z,33.62
2018-06-03T12:23:46.984Z,34.99
2018-06-03T12:26:14.510Z,35.59
2018-06-03T12:28:42.143Z,36.65
2018-06-03T12:31:09.678Z,37.45
2018-06-03T12:33:37.198Z,36.05
2018-06-03T12:36:04.763Z,34.83
2018-06-03T12:38:32.307Z,34.62
2018-06-03T12:40:59.874Z,33.45
2018-06-03T12:43:27.426Z,32.76
2018-06-03T12:45:54.960Z,34.06
2018-06-03T12:48:22.511Z,35.88
2018-06-03T12:50:50.446Z,35.39
2018-06-03T12:53:17.999Z,33.36
2018-06-03T12:55:45.526Z,32.55
2018-06-03T12:58:13.075Z,34.78
2018-06-03T13:00:40.586Z,36.53
2018-06-03T13:03:08.400Z,37.46
2018-06-03T13:05:35.938Z,38.02
2018-06-03T13:08:03.687Z,38.08
2018-06-03T13:10:31.237Z,36.62
2018-06-03T13:12:58.762Z,36.54
2018-06-03T13:15:26.442Z,35.80
2018-06-03T13:17:53.943Z,36.87
2018-06-03T13:20:21.663Z,37.93
2018-06-03T13:22:49.210Z,38.53
2018-06-03T13:25:16.761Z,38.88
2018-06-03T13:27:44.345Z,39.09
2018-06-03T13:30:11.851Z,39.42
2018-06-03T13:32:39.354Z,39.59
2018-06-03T13:35:06.927Z,39.40
2018-06-03T13:37:34.484Z,39.05
2018-06-03T13:40:02.052Z,39.21
2018-06-03T13:42:29.631Z,39.06
2018-06-03T13:44:57.147Z,39.03
2018-06-03T13:47:24.646Z,39.29
2018-06-03T13:49:52.224Z,39.40
2018-06-03T13:52:19.753Z,39.47
2018-06-03T13:54:47.264Z,39.89
2018-06-03T13:57:14.830Z,39.88
2018-06-03T13:59:42.379Z,39.17
2018-06-03T14:02:09.891Z,38.63
2018-06-03T14:04:37.454Z,37.97
2018-06-03T14:07:04.965Z,38.44
2018-06-03T14:09:32.472Z,37.03
2018-06-03T14:12:06.741Z,35.21
2018-06-03T14:14:34.438Z,33.94
2018-06-03T14:17:01.972Z,33.26
2018-06-03T14:19:29.589Z,32.91
2018-06-03T14:21:57.193Z,32.47
2018-06-03T14:24:24.723Z,32.38
2018-06-03T14:26:52.290Z,34.32
2018-06-03T14:29:19.804Z,35.73
2018-06-03T14:31:47.319Z,36.55
2018-06-03T14:34:14.871Z,37.28
2018-06-03T14:36:42.563Z,37.46
2018-06-03T14:39:10.107Z,35.56
2018-06-03T14:41:37.692Z,35.39
2018-06-03T14:44:05.271Z,35.99
2018-06-03T14:46:32.791Z,35.77
2018-06-03T14:49:00.330Z,35.84
2018-06-03T14:51:27.867Z,35.90
2018-06-03T14:53:55.400Z,34.68
2018-06-03T14:56:22.964Z,33.43
2018-06-03T14:58:50.636Z,32.42
2018-06-03T15:01:18.211Z,33.22
2018-06-03T15:03:45.866Z,33.63
2018-06-03T15:06:13.504Z,33.62
2018-06-03T15:08:41.054Z,33.54
2018-06-03T15:11:08.590Z,33.43
2018-06-03T15:13:36.159Z,33.39
2018-06-03T15:16:03.691Z,33.16
2018-06-03T15:18:31.250Z,33.06
2018-06-03T15:20:58.832Z,32.95
2018-06-03T15:23:26.379Z,32.85
2018-06-03T15:25:53.961Z,32.26
2018-06-03T15:28:21.507Z,31.80
2018-06-03T15:30:49.047Z,31.49
2018-06-03T15:33:16.597Z,31.10
2018-06-03T15:35:44.144Z,30.74
2018-06-03T15:38:11.664Z,30.49
2018-06-03T15:40:39.247Z,30.41
2018-06-03T15:43:06.779Z,30.56
2018-06-03T15:45:34.319Z,30.61
2018-06-03T15:48:01.952Z,30.53
2018-06-03T15:50:29.475Z,30.37
2018-06-03T15:52:57.002Z,30.31
2018-06-03T15:55:24.568Z,30.21
2018-06-03T15:57:52.078Z,30.18
2018-06-03T16:00:19.619Z,30.04
2018-06-03T16:02:47.171Z,29.86
2018-06-03T16:05:14.722Z,29.85
2018-06-03T16:07:42.285Z,29.76
2018-06-03T16:10:09.865Z,29.62
2018-06-03T16:12:37.400Z,29.64
2018-06-03T16:15:04.995Z,29.69
2018-06-03T16:17:32.559Z,29.53
2018-06-03T16:20:00.103Z,29.32
2018-06-03T16:22:27.611Z,29.17
2018-06-03T16:24:55.164Z,29.04
2018-06-03T16:27:22.711Z,28.86
2018-06-03T16:29:50.280Z,28.75
2018-06-03T16:32:17.864Z,28.63
2018-06-03T16:34:45.390Z,28.39
2018-06-03T16:37:12.902Z,28.32
2018-06-03T16:39:40.438Z,28.23
2018-06-03T16:42:07.987Z,28.25
2018-06-03T16:44:35.547Z,28.19
2018-06-03T16:47:03.187Z,28.11
2018-06-03T16:49:30.706Z,28.04
2018-06-03T16:51:58.271Z,27.86
2018-06-03T16:54:25.862Z,27.87
2018-06-03T16:56:53.416Z,27.76
2018-06-03T16:59:20.959Z,27.76
2018-06-03T17:01:48.486Z,27.76
2018-06-03T17:04:16.028Z,27.74
2018-06-03T17:09:46.619Z,27.56
2018-06-03T17:12:14.500Z,27.45
2018-06-03T17:14:42.043Z,27.35
2018-06-03T17:17:09.775Z,27.32
2018-06-03T17:19:37.344Z,27.24
2018-06-03T17:22:04.884Z,27.23
2018-06-03T17:24:32.426Z,27.16
2018-06-03T17:26:59.967Z,27.06
2018-06-03T17:29:27.527Z,27.03
2018-06-03T17:31:55.112Z,26.98
2018-06-03T17:34:22.679Z,26.93
2018-06-03T17:36:50.215Z,26.88
2018-06-03T17:39:17.795Z,26.83
2018-06-03T17:41:45.356Z,26.78
2018-06-03T17:44:12.878Z,26.72
2018-06-03T17:46:40.444Z,26.64
2018-06-03T17:49:07.990Z,26.59
2018-06-03T17:51:35.535Z,26.48
2018-06-03T17:54:03.108Z,26.44
2018-06-03T17:56:30.632Z,26.37
2018-06-03T17:58:58.160Z,26.30
2018-06-03T18:01:25.755Z,26.24
2018-06-03T18:03:53.325Z,26.18
2018-06-03T18:06:20.865Z,26.09
2018-06-03T18:08:48.414Z,26.03
2018-06-03T18:11:16.271Z,25.95
2018-06-03T18:13:43.811Z,25.89
2018-06-03T18:16:11.378Z,25.86
2018-06-03T18:18:38.975Z,25.82
2018-06-03T18:21:06.519Z,25.79
2018-06-03T18:26:08.671Z,25.69
2018-06-03T18:28:36.226Z,25.64
2018-06-03T18:31:03.735Z,25.59
2018-06-03T18:33:31.254Z,25.54
2018-06-03T18:35:58.814Z,25.51
2018-06-03T18:38:26.326Z,25.44
2018-06-03T18:40:53.959Z,25.39
2018-06-03T18:43:21.520Z,25.34
2018-06-03T18:45:49.293Z,25.31
2018-06-03T18:48:16.837Z,25.29
2018-06-03T18:50:44.554Z,25.17
2018-06-03T18:53:12.063Z,25.09
2018-06-03T18:55:39.797Z,25.03
2018-06-03T18:58:07.438Z,24.95
2018-06-03T19:00:35.010Z,24.93
2018-06-03T19:03:02.767Z,24.87
2018-06-03T19:05:30.355Z,24.83
2018-06-03T19:07:58.010Z,24.77
2018-06-03T19:10:25.640Z,24.73
2018-06-03T19:12:53.206Z,24.64
2018-06-03T19:15:20.876Z,24.59
2018-06-03T19:17:48.475Z,24.51
2018-06-03T19:20:16.143Z,24.46
2018-06-03T19:22:43.768Z,24.40
2018-06-03T19:25:11.306Z,24.32
2018-06-03T19:27:39.088Z,24.23
2018-06-03T19:30:06.571Z,24.16
2018-06-03T19:32:34.168Z,24.11
2018-06-03T19:35:01.816Z,24.08
2018-06-03T19:37:29.342Z,24.01
2018-06-03T19:40:03.399Z,23.92
2018-06-03T19:42:31.095Z,23.83
2018-06-03T19:44:58.631Z,23.74
2018-06-03T19:47:26.213Z,23.73
2018-06-03T19:49:53.899Z,23.65
2018-06-03T19:52:21.496Z,23.63
2018-06-03T19:54:49.142Z,23.64
2018-06-03T19:57:16.653Z,23.59
2018-06-03T19:59:44.171Z,23.60
2018-06-03T20:02:11.920Z,23.53
2018-06-03T20:04:39.446Z,23.47
2018-06-03T20:07:07.367Z,23.44
2018-06-03T20:09:34.912Z,23.39
2018-06-03T20:12:02.419Z,23.34
2018-06-03T20:14:30.092Z,23.32
2018-06-03T20:16:57.695Z,23.29
2018-06-03T20:19:25.432Z,23.23
2018-06-03T20:21:52.987Z,23.18
2018-06-03T20:24:20.516Z,23.15
2018-06-03T20:26:48.374Z,23.10
2018-06-03T20:29:15.869Z,23.10
2018-06-03T20:31:43.550Z,23.10
2018-06-03T20:34:11.089Z,23.02
2018-06-03T20:36:38.627Z,22.98
2018-06-03T20:39:07.104Z,22.94
2018-06-03T20:41:34.615Z,22.90
2018-06-03T20:44:02.415Z,22.89
2018-06-03T20:46:30.143Z,22.84
2018-06-03T20:48:57.649Z,22.75
2018-06-03T20:51:25.186Z,22.74
2018-06-03T20:53:52.762Z,22.67
2018-06-03T20:56:20.430Z,22.62
2018-06-03T20:58:47.968Z,22.60
2018-06-03T21:01:15.598Z,22.55
2018-06-03T21:03:43.339Z,22.51
2018-06-03T21:06:10.835Z,22.47
2018-06-03T21:08:38.591Z,22.42
2018-06-03T21:11:06.114Z,22.41
2018-06-03T21:13:33.662Z,22.40
2018-06-03T21:16:01.470Z,22.39
2018-06-03T21:18:28.976Z,22.34
2018-06-03T21:20:56.645Z,22.33
2018-06-03T21:23:24.190Z,22.26
2018-06-03T21:25:51.751Z,22.21
2018-06-03T21:28:19.434Z,22.15
2018-06-03T21:30:46.977Z,22.11
2018-06-03T21:33:14.650Z,22.09
2018-06-03T21:35:42.131Z,22.07
2018-06-03T21:38:09.714Z,22.04
2018-06-03T21:40:37.396Z,22.00
2018-06-03T21:43:04.963Z,21.96
2018-06-03T21:45:32.622Z,21.93
2018-06-03T21:48:00.131Z,21.91
2018-06-03T21:50:27.644Z,21.88
2018-06-03T21:52:55.215Z,21.86
2018-06-03T21:55:22.738Z,21.86
2018-06-03T21:57:50.267Z,21.83
2018-06-03T22:00:17.798Z,21.81
2018-06-03T22:02:45.306Z,21.85
2018-06-03T22:05:12.835Z,21.84
2018-06-03T22:07:40.382Z,21.83
2018-06-03T22:10:07.887Z,21.79
2018-06-03T22:12:35.413Z,21.80
2018-06-03T22:15:03.030Z,21.79
2018-06-03T22:17:30.554Z,21.74
2018-06-03T22:19:58.070Z,21.72
2018-06-03T22:22:25.602Z,21.74
2018-06-03T22:24:53.127Z,21.68
2018-06-03T22:27:20.639Z,21.64
2018-06-03T22:29:48.175Z,21.58
2018-06-03T22:32:15.675Z,21.52
2018-06-03T22:34:43.203Z,21.47
2018-06-03T22:37:10.735Z,21.42
2018-06-03T22:39:38.286Z,21.40
2018-06-03T22:42:05.791Z,21.36
2018-06-03T22:44:33.338Z,21.35
2018-06-03T22:47:00.840Z,21.31
2018-06-03T22:49:28.341Z,21.28
2018-06-03T22:51:55.900Z,21.22
2018-06-03T22:54:23.405Z,21.19
2018-06-03T22:57:01.863Z,21.15
2018-06-03T22:59:29.370Z,21.10
2018-06-03T23:01:56.923Z,21.00
2018-06-03T23:04:24.450Z,20.99
2018-06-03T23:06:51.971Z,20.94
2018-06-03T23:09:19.487Z,20.95
2018-06-03T23:11:47.047Z,20.95
2018-06-03T23:14:14.563Z,20.89
2018-06-03T23:16:42.079Z,20.88
2018-06-03T23:19:09.603Z,20.81
2018-06-03T23:21:37.134Z,20.79
2018-06-03T23:24:04.672Z,20.74
2018-06-03T23:26:32.196Z,20.74
2018-06-03T23:28:59.714Z,20.72
2018-06-03T23:31:27.226Z,20.68
2018-06-03T23:33:54.782Z,20.64
2018-06-03T23:36:22.283Z,20.61
2018-06-03T23:38:49.814Z,20.58
2018-06-03T23:41:17.333Z,20.51
2018-06-03T23:43:44.847Z,20.50
2018-06-03T23:46:12.418Z,20.51
2018-06-03T23:48:39.943Z,20.49
2018-06-03T23:51:07.443Z,20.46
2018-06-03T23:53:34.943Z,20.42
2018-06-03T23:56:02.506Z,20.38
2018-06-03T23:58:30.058Z,20.41
